Time;durP1;ratioP1;P1;durP2;ratioP2;P2;SDS_P1;SDS_P2;PMS_P1;PMS_P2;Temp;Humidity;BMP_temperature;BMP_pressure;BME280_temperature;BME280_humidity;BME280_pressure;Samples;Min_cycle;Max_cycle;Signal;HPM_P1;HPM_P2
2021/01/24 00:00:21;;;;;;;232.00;127.72;;;;;;;1.51;76.52;92895.59;1764605;81;21069;-57
2021/01/24 00:02:49;;;;;;;247.10;128.53;;;;;;;1.57;76.70;92888.42;1764649;81;21603;-57
2021/01/24 00:05:18;;;;;;;244.85;127.25;;;;;;;1.63;76.54;92886.09;1764472;81;21156;-58
2021/01/24 00:07:46;;;;;;;235.50;124.42;;;;;;;1.71;76.37;92879.86;1764519;81;21152;-56
2021/01/24 00:10:17;;;;;;;246.25;130.30;;;;;;;1.76;76.12;92867.87;1764476;81;21156;-56
2021/01/24 00:12:46;;;;;;;266.08;135.75;;;;;;;1.77;76.25;92880.97;1764571;81;21128;-56
2021/01/24 00:15:15;;;;;;;255.52;137.15;;;;;;;1.83;76.15;92877.11;1764499;81;21329;-58
2021/01/24 00:17:44;;;;;;;259.32;135.63;;;;;;;1.87;75.93;92879.11;1764583;81;21080;-56
2021/01/24 00:20:12;;;;;;;245.65;125.50;;;;;;;1.89;76.05;92874.00;1764608;81;21079;-57
2021/01/24 00:22:40;;;;;;;247.67;131.15;;;;;;;1.92;75.70;92882.03;1764497;81;21128;-57
2021/01/24 00:25:11;;;;;;;251.27;128.85;;;;;;;1.78;75.31;92873.00;1764525;81;21080;-56
2021/01/24 00:27:40;;;;;;;229.82;127.78;;;;;;;1.64;75.46;92866.52;1764527;81;21376;-57
2021/01/24 00:30:10;;;;;;;231.47;119.97;;;;;;;1.57;75.87;92862.11;1764446;81;21160;-57
2021/01/24 00:32:38;;;;;;;209.98;115.88;;;;;;;1.55;75.67;92868.56;1764591;81;21536;-57
2021/01/24 00:35:09;;;;;;;211.35;113.28;;;;;;;1.46;75.71;92868.45;1764485;81;21532;-56
2021/01/24 00:37:38;;;;;;;210.88;113.88;;;;;;;1.39;75.83;92873.33;1764675;81;21545;-57
2021/01/24 00:40:08;;;;;;;211.68;116.75;;;;;;;1.30;75.98;92869.17;1764610;81;22176;-56
2021/01/24 00:42:37;;;;;;;212.17;111.85;;;;;;;1.25;76.35;92866.41;1764556;81;21170;-57
2021/01/24 00:45:07;;;;;;;182.17;97.25;;;;;;;1.26;76.48;92870.62;1764591;81;21600;-56
2021/01/24 00:47:36;;;;;;;200.65;108.52;;;;;;;1.32;76.33;92870.84;1764548;81;21143;-57
2021/01/24 00:50:07;;;;;;;194.28;100.50;;;;;;;1.27;76.32;92859.95;1764461;81;21159;-56
2021/01/24 00:52:35;;;;;;;187.72;102.55;;;;;;;1.25;76.34;92855.57;1764605;81;21600;-56
2021/01/24 00:55:06;;;;;;;183.00;98.62;;;;;;;1.24;76.41;92849.99;1764437;81;21096;-56
2021/01/24 00:57:35;;;;;;;196.53;105.50;;;;;;;1.25;76.55;92841.27;1764534;81;21611;-56
2021/01/24 01:00:05;;;;;;;214.05;113.60;;;;;;;1.23;76.65;92843.06;1764463;81;21087;-56
2021/01/24 01:02:34;;;;;;;217.15;114.32;;;;;;;1.17;76.68;92843.42;1764532;81;21064;-56
2021/01/24 01:05:03;;;;;;;196.12;102.67;;;;;;;1.13;76.80;92844.75;1764557;81;23458;-57
2021/01/24 01:07:33;;;;;;;172.82;93.35;;;;;;;1.12;76.83;92845.94;1764434;81;21096;-57
2021/01/24 01:10:01;;;;;;;149.60;79.50;;;;;;;1.07;76.94;92846.46;1764456;81;21097;-56
2021/01/24 01:12:29;;;;;;;126.62;68.00;;;;;;;1.10;77.13;92850.42;1764454;81;21108;-56
2021/01/24 01:14:58;;;;;;;134.43;72.03;;;;;;;1.15;77.55;92851.23;1764496;81;21508;-56
2021/01/24 01:17:26;;;;;;;165.80;92.33;;;;;;;1.26;77.57;92853.61;1764634;81;22297;-57
2021/01/24 01:19:55;;;;;;;184.63;92.42;;;;;;;1.28;77.14;92849.28;1764526;81;21195;-56
2021/01/24 01:22:23;;;;;;;243.88;118.82;;;;;;;1.16;76.93;92851.39;1764519;81;21092;-57
2021/01/24 01:24:51;;;;;;;230.25;120.95;;;;;;;1.05;77.33;92854.26;1764445;81;21077;-55
2021/01/24 01:27:20;;;;;;;220.22;113.00;;;;;;;1.06;77.72;92852.48;1764517;81;21075;-56
2021/01/24 01:29:48;;;;;;;200.40;106.75;;;;;;;1.11;77.50;92853.29;1764584;81;22284;-56
2021/01/24 01:32:16;;;;;;;190.68;104.07;;;;;;;1.10;77.36;92851.77;1764424;81;21137;-56
2021/01/24 01:34:45;;;;;;;177.30;97.72;;;;;;;1.11;77.56;92842.46;1760387;81;21583;-56
2021/01/24 01:37:13;;;;;;;204.03;105.90;;;;;;;1.19;77.66;92843.00;1758823;81;21077;-56
2021/01/24 01:39:44;;;;;;;197.87;100.40;;;;;;;1.27;77.59;92848.35;1758821;81;21068;-56
2021/01/24 01:42:14;;;;;;;195.60;103.02;;;;;;;1.32;77.37;92841.80;1730257;81;22232;-56
2021/01/24 01:44:43;;;;;;;186.60;99.75;;;;;;;1.37;77.31;92843.98;1758763;81;21092;-56
2021/01/24 01:47:16;;;;;;;180.12;98.45;;;;;;;1.36;77.03;92839.73;1758826;81;21497;-56
2021/01/24 01:49:44;;;;;;;184.20;99.05;;;;;;;1.40;77.19;92842.34;1758950;81;21109;-57
2021/01/24 01:52:12;;;;;;;182.40;99.22;;;;;;;1.49;77.19;92851.32;1758892;81;21080;-57
2021/01/24 01:54:44;;;;;;;187.30;96.75;;;;;;;1.56;76.66;92847.62;1758941;81;22259;-56
2021/01/24 01:57:13;;;;;;;176.02;94.28;;;;;;;1.55;76.52;92840.70;1758900;81;21505;-56
2021/01/24 01:59:41;;;;;;;152.12;84.55;;;;;;;1.53;76.44;92834.34;1758808;81;21092;-56
2021/01/24 02:02:24;;;;;;;157.95;79.85;;;;;;;1.55;76.60;92830.63;1758873;81;21064;-55
2021/01/24 02:05:02;;;;;;;160.45;87.67;;;;;;;1.62;76.44;92830.97;1735013;82;21078;-56
2021/01/24 02:07:44;;;;;;;157.57;85.20;;;;;;;1.57;76.15;92833.66;1755243;81;21217;-55
2021/01/24 02:10:17;;;;;;;174.70;92.88;;;;;;;1.44;76.23;92821.31;1758891;81;21106;-55
2021/01/24 02:13:17;;;;;;;189.67;104.45;;;;;;;1.27;76.47;92828.81;1758940;81;21120;-57
2021/01/24 02:15:46;;;;;;;175.35;93.25;;;;;;;1.21;76.71;92834.63;1758922;81;21619;-55
2021/01/24 02:18:14;;;;;;;158.90;84.40;;;;;;;1.22;76.75;92832.08;1758970;81;21073;-56
2021/01/24 02:21:06;;;;;;;169.77;95.07;;;;;;;1.23;76.86;92829.53;1706126;81;21367;-56
2021/01/24 02:23:34;;;;;;;170.47;87.10;;;;;;;1.26;76.90;92827.30;1758939;81;21168;-56
2021/01/24 02:26:23;;;;;;;171.02;87.62;;;;;;;1.29;76.65;92828.39;1758957;81;21072;-56
2021/01/24 02:29:20;;;;;;;161.97;81.20;;;;;;;1.25;76.58;92824.43;1753150;81;21096;-56
2021/01/24 02:31:49;;;;;;;161.03;86.82;;;;;;;1.17;76.58;92829.89;1759001;81;21223;-57
2021/01/24 02:34:19;;;;;;;166.18;85.25;;;;;;;1.10;77.01;92817.94;1760762;81;21210;-56
2021/01/24 02:36:47;;;;;;;167.40;82.78;;;;;;;1.09;77.12;92820.48;1764540;81;21116;-56
2021/01/24 02:39:16;;;;;;;168.65;86.75;;;;;;;1.11;77.36;92834.34;1764663;81;21156;-57
2021/01/24 02:41:44;;;;;;;184.67;91.15;;;;;;;1.18;77.48;92829.30;1713663;81;21064;-55
2021/01/24 02:44:12;;;;;;;162.77;86.37;;;;;;;1.26;77.42;92821.88;1764602;81;21056;-57
2021/01/24 02:46:41;;;;;;;170.97;88.52;;;;;;;1.32;77.27;92820.13;1764623;81;21443;-56
2021/01/24 02:49:10;;;;;;;148.50;76.65;;;;;;;1.36;77.14;92820.77;1764648;81;21607;-55
2021/01/24 02:51:38;;;;;;;170.45;90.30;;;;;;;1.41;76.94;92816.77;1764563;81;21123;-56
2021/01/24 02:54:07;;;;;;;162.72;87.62;;;;;;;1.39;77.08;92809.67;1764572;81;21184;-56
2021/01/24 02:56:37;;;;;;;166.70;89.30;;;;;;;1.42;76.93;92803.38;1737352;81;21179;-56
2021/01/24 02:59:05;;;;;;;170.32;88.10;;;;;;;1.41;76.86;92806.70;1764595;81;21341;-57
2021/01/24 03:01:33;;;;;;;174.97;91.32;;;;;;;1.43;76.95;92812.44;1737263;81;21504;-57
2021/01/24 03:04:02;;;;;;;166.70;85.57;;;;;;;1.42;76.77;92809.57;1764594;81;21064;-56
2021/01/24 03:06:32;;;;;;;165.00;87.60;;;;;;;1.48;77.02;92803.02;1764581;81;21087;-56
2021/01/24 03:09:01;;;;;;;152.65;78.75;;;;;;;1.54;77.00;92804.70;1764596;81;21064;-57
2021/01/24 03:11:29;;;;;;;157.12;80.50;;;;;;;1.64;76.93;92796.84;1764623;81;21362;-56
2021/01/24 03:14:19;;;;;;;141.90;75.03;;;;;;;1.73;76.89;92792.84;1764578;81;21159;-56
2021/01/24 03:16:49;;;;;;;146.95;78.52;;;;;;;1.86;76.67;92774.59;1764589;81;21167;-56
2021/01/24 03:19:20;;;;;;;167.85;85.22;;;;;;;1.86;76.02;92774.59;1736979;81;21990;-57
2021/01/24 03:21:49;;;;;;;137.82;74.17;;;;;;;1.77;75.97;92775.89;1764591;81;21155;-56
2021/01/24 03:24:17;;;;;;;148.02;80.30;;;;;;;1.68;76.03;92779.12;1737279;81;22249;-56
2021/01/24 03:26:46;;;;;;;171.90;91.32;;;;;;;1.62;76.19;92772.14;1764537;81;21159;-56
2021/01/24 03:29:14;;;;;;;164.80;88.72;;;;;;;1.61;76.23;92774.69;1764571;81;21104;-55
2021/01/24 03:31:43;;;;;;;165.43;85.42;;;;;;;1.59;76.34;92768.95;1764606;81;21520;-56
2021/01/24 03:34:21;;;;;;;163.50;86.40;;;;;;;1.65;76.73;92768.55;1731366;81;21152;-56
2021/01/24 03:36:51;;;;;;;162.45;83.65;;;;;;;1.74;76.72;92772.09;1734241;82;21311;-56
2021/01/24 03:39:20;;;;;;;148.50;77.17;;;;;;;1.90;76.59;92767.86;1734253;82;21552;-55
2021/01/24 03:41:48;;;;;;;142.82;73.12;;;;;;;2.02;76.08;92774.42;1734220;82;21148;-56
2021/01/24 03:44:16;;;;;;;153.87;77.37;;;;;;;1.98;75.97;92765.66;1734192;82;21116;-56
2021/01/24 03:46:45;;;;;;;123.45;62.95;;;;;;;1.97;75.97;92761.44;1734196;82;21073;-56
2021/01/24 03:49:13;;;;;;;130.63;68.33;;;;;;;1.97;75.89;92776.34;1734234;82;21213;-56
2021/01/24 03:51:43;;;;;;;132.32;71.15;;;;;;;1.90;75.83;92767.86;1734060;82;21103;-56
2021/01/24 03:54:12;;;;;;;129.10;65.67;;;;;;;1.92;76.17;92771.50;1734208;82;21061;-56
2021/01/24 03:56:40;;;;;;;129.10;67.03;;;;;;;1.99;75.95;92761.75;1734216;81;21093;-56
2021/01/24 03:59:08;;;;;;;111.05;61.15;;;;;;;1.94;75.92;92756.29;1734193;81;21159;-56
2021/01/24 04:01:37;;;;;;;108.42;55.45;;;;;;;1.95;75.96;92758.42;1734211;82;21212;-56
2021/01/24 04:04:06;;;;;;;117.55;65.00;;;;;;;1.93;75.84;92760.20;1734229;82;21620;-56
2021/01/24 04:06:34;;;;;;;123.47;66.62;;;;;;;1.85;75.95;92762.23;1734214;82;21069;-56
2021/01/24 04:09:03;;;;;;;109.35;60.10;;;;;;;1.80;76.13;92758.74;1734185;81;21068;-55
2021/01/24 04:11:32;;;;;;;131.50;70.35;;;;;;;1.80;76.26;92756.03;1734301;82;21513;-56
2021/01/24 04:14:00;;;;;;;131.03;67.15;;;;;;;1.77;76.12;92752.85;1734148;81;21209;-56
2021/01/24 04:16:29;;;;;;;134.25;67.90;;;;;;;1.75;76.23;92749.22;1734172;81;21925;-57
2021/01/24 04:18:57;;;;;;;127.38;67.85;;;;;;;1.81;76.45;92748.06;1734240;81;21124;-57
2021/01/24 04:21:26;;;;;;;128.80;67.62;;;;;;;1.87;76.27;92742.23;1734284;82;21180;-56
2021/01/24 04:23:55;;;;;;;127.00;66.20;;;;;;;1.95;76.35;92740.80;1734317;82;21068;-56
2021/01/24 04:26:24;;;;;;;117.62;64.70;;;;;;;2.01;76.20;92733.59;1734351;81;22123;-56
2021/01/24 04:28:52;;;;;;;117.97;64.10;;;;;;;2.10;76.33;92732.32;1734391;82;21517;-56
2021/01/24 04:31:21;;;;;;;115.95;63.38;;;;;;;2.15;76.08;92735.20;1734275;82;21061;-56
2021/01/24 04:33:49;;;;;;;111.05;62.05;;;;;;;2.22;75.90;92736.90;1734253;82;21120;-57
2021/01/24 04:36:17;;;;;;;109.32;57.75;;;;;;;2.25;75.94;92744.14;1755782;81;21150;-56
2021/01/24 04:38:46;;;;;;;118.42;59.88;;;;;;;2.31;75.62;92744.49;1758924;81;21366;-57
2021/01/24 04:41:15;;;;;;;115.20;62.15;;;;;;;2.31;75.39;92743.75;1759035;81;21095;-56
2021/01/24 04:43:44;;;;;;;127.17;68.55;;;;;;;2.25;75.42;92746.27;1758952;81;21097;-57
2021/01/24 04:46:13;;;;;;;123.33;66.37;;;;;;;2.29;75.46;92742.82;1758964;81;21083;-56
2021/01/24 04:48:42;;;;;;;125.22;66.28;;;;;;;2.31;75.48;92742.39;1730029;81;21061;-56
2021/01/24 04:51:12;;;;;;;114.32;61.85;;;;;;;2.37;75.55;92731.11;1758827;81;21367;-57
2021/01/24 04:53:41;;;;;;;131.40;71.35;;;;;;;2.45;75.22;92740.49;1758871;81;21096;-56
2021/01/24 04:56:09;;;;;;;129.03;69.92;;;;;;;2.40;75.06;92745.14;1758839;81;21136;-56
2021/01/24 04:58:37;;;;;;;143.43;74.67;;;;;;;2.36;74.99;92739.09;1729573;81;21144;-56
2021/01/24 05:01:06;;;;;;;143.28;75.45;;;;;;;2.34;75.21;92738.79;1758842;81;21176;-56
2021/01/24 05:03:35;;;;;;;140.43;78.17;;;;;;;2.32;75.02;92738.48;1758931;81;22136;-56
2021/01/24 05:06:04;;;;;;;147.55;75.47;;;;;;;2.26;75.25;92734.80;1758907;81;21080;-56
2021/01/24 05:08:33;;;;;;;137.85;71.47;;;;;;;2.28;75.17;92737.83;1759007;81;21107;-56
2021/01/24 05:11:05;;;;;;;147.72;77.47;;;;;;;2.27;74.97;92734.38;1758903;81;21067;-57
2021/01/24 05:13:34;;;;;;;137.47;73.33;;;;;;;2.21;75.01;92729.96;1759123;81;21492;-56
2021/01/24 05:16:02;;;;;;;136.37;75.90;;;;;;;2.23;75.44;92734.34;1758949;81;21438;-56
2021/01/24 05:18:31;;;;;;;147.02;78.33;;;;;;;2.30;75.21;92730.77;1682977;81;21128;-57
2021/01/24 05:20:59;;;;;;;145.32;79.65;;;;;;;2.32;75.36;92721.59;1758843;81;21116;-56
2021/01/24 05:23:27;;;;;;;156.97;81.55;;;;;;;2.35;75.10;92724.02;1758778;81;21120;-56
2021/01/24 05:25:56;;;;;;;146.65;83.52;;;;;;;2.34;75.16;92722.52;1758840;81;21175;-57
2021/01/24 05:28:29;;;;;;;146.57;81.63;;;;;;;2.40;75.43;92723.44;1758918;81;22284;-56
2021/01/24 05:31:07;;;;;;;142.30;76.55;;;;;;;2.50;75.28;92720.33;1758926;81;21560;-57
2021/01/24 05:33:39;;;;;;;129.32;75.78;;;;;;;2.59;75.12;92720.39;1758938;81;21615;-56
2021/01/24 05:36:07;;;;;;;139.75;75.67;;;;;;;2.67;75.01;92720.26;1711324;81;21144;-56
2021/01/24 05:38:36;;;;;;;133.63;79.40;;;;;;;2.70;74.64;92722.08;1757469;81;21179;-56
2021/01/24 05:41:11;;;;;;;152.95;86.40;;;;;;;2.64;74.58;92727.94;1762645;81;22212;-57
2021/01/24 05:43:42;;;;;;;133.67;76.28;;;;;;;2.64;74.70;92727.17;1762566;81;21112;-56
2021/01/24 05:46:11;;;;;;;138.68;77.92;;;;;;;2.65;74.29;92724.02;1762699;81;21604;-56
2021/01/24 05:48:49;;;;;;;128.97;70.50;;;;;;;2.51;74.32;92726.52;1762661;81;21600;-57
2021/01/24 05:51:18;;;;;;;144.72;79.00;;;;;;;2.37;74.58;92718.91;1762599;81;21159;-57
2021/01/24 05:53:48;;;;;;;129.23;68.37;;;;;;;2.31;74.76;92709.84;1762547;81;21454;-57
2021/01/24 05:56:20;;;;;;;137.68;79.72;;;;;;;2.23;74.96;92707.99;1762554;81;21542;-56
2021/01/24 05:58:57;;;;;;;130.22;71.22;;;;;;;2.14;75.20;92712.61;1762726;81;21145;-56
2021/01/24 06:01:26;;;;;;;137.55;73.20;;;;;;;2.12;75.52;92701.45;1762581;81;21202;-56
2021/01/24 06:03:57;;;;;;;149.65;81.40;;;;;;;2.13;75.57;92705.67;1762612;81;21080;-57
2021/01/24 06:06:25;;;;;;;160.50;81.30;;;;;;;2.14;75.81;92710.63;1762617;81;22324;-56
2021/01/24 06:08:54;;;;;;;148.25;81.45;;;;;;;2.21;75.96;92710.39;1762507;81;21085;-57
2021/01/24 06:11:22;;;;;;;183.93;100.90;;;;;;;2.30;75.90;92706.98;1762520;81;21520;-56
2021/01/24 06:13:54;;;;;;;170.32;93.97;;;;;;;2.34;75.78;92703.52;1762523;81;21092;-56
2021/01/24 06:16:29;;;;;;;156.28;88.27;;;;;;;2.37;75.77;92699.92;1762695;81;21092;-57
2021/01/24 06:19:01;;;;;;;156.80;83.15;;;;;;;2.35;75.78;92696.89;1762602;81;21230;-57
2021/01/24 06:21:42;;;;;;;152.02;86.90;;;;;;;2.33;75.74;92705.47;1762754;81;21584;-57
2021/01/24 06:24:21;;;;;;;149.80;79.62;;;;;;;2.36;75.82;92701.13;1762586;81;21073;-57
2021/01/24 06:26:53;;;;;;;144.60;75.75;;;;;;;2.33;75.73;92701.40;1762653;81;21183;-57
2021/01/24 06:29:21;;;;;;;151.72;81.53;;;;;;;2.33;75.83;92703.38;1762696;81;21584;-56
2021/01/24 06:31:53;;;;;;;139.60;78.17;;;;;;;2.36;75.87;92699.77;1762528;81;21429;-56
2021/01/24 06:34:37;;;;;;;148.10;85.70;;;;;;;2.40;76.04;92699.02;1762574;81;21076;-56
2021/01/24 06:37:19;;;;;;;146.30;79.17;;;;;;;2.46;75.97;92704.79;1767037;81;21076;-56
2021/01/24 06:39:53;;;;;;;160.15;86.50;;;;;;;2.55;75.84;92702.72;1767445;81;21151;-57
2021/01/24 06:42:39;;;;;;;163.92;87.80;;;;;;;2.58;75.58;92701.83;1767506;81;21064;-56
2021/01/24 06:45:31;;;;;;;166.90;92.70;;;;;;;2.59;75.50;92701.39;1767630;81;22092;-56
2021/01/24 06:48:00;;;;;;;164.82;89.85;;;;;;;2.57;75.55;92697.02;1767528;81;21155;-57
2021/01/24 06:50:48;;;;;;;163.05;98.65;;;;;;;2.61;75.54;92697.63;1767650;81;21080;-57
2021/01/24 06:53:22;;;;;;;154.65;83.97;;;;;;;2.62;75.57;92702.44;1767656;81;21163;-57
2021/01/24 06:56:06;;;;;;;161.30;89.95;;;;;;;2.66;75.48;92689.52;1767624;81;21115;-56
2021/01/24 06:58:35;;;;;;;143.05;76.65;;;;;;;2.71;75.26;92688.92;1767559;81;21270;-56
2021/01/24 07:01:30;;;;;;;174.12;95.00;;;;;;;2.66;75.25;92684.08;1767718;81;21473;-57
2021/01/24 07:04:29;;;;;;;249.00;118.82;;;;;;;2.60;75.41;92683.14;1767592;81;21111;-57
2021/01/24 07:07:14;;;;;;;212.97;103.87;;;;;;;2.57;75.30;92695.66;1767588;81;21168;-58
2021/01/24 07:09:44;;;;;;;223.93;113.92;;;;;;;2.56;75.55;92686.59;1758216;81;21557;-57
2021/01/24 07:12:12;;;;;;;186.95;106.32;;;;;;;2.56;75.66;92687.95;1767552;81;21108;-57
2021/01/24 07:14:45;;;;;;;174.57;100.25;;;;;;;2.58;75.83;92684.19;1767554;81;21108;-58
2021/01/24 07:17:16;;;;;;;193.02;104.45;;;;;;;2.66;75.93;92688.16;1767557;81;21219;-57
2021/01/24 07:19:50;;;;;;;236.77;127.45;;;;;;;2.81;75.77;92695.88;1767589;81;21116;-58
2021/01/24 07:22:21;;;;;;;260.10;133.32;;;;;;;2.82;75.44;92694.67;1767609;81;21132;-57
2021/01/24 07:24:50;;;;;;;206.25;109.70;;;;;;;2.79;75.42;92692.86;1767656;81;22174;-57
2021/01/24 07:27:21;;;;;;;188.40;101.75;;;;;;;2.78;75.36;92695.42;1767501;81;21164;-57
2021/01/24 07:29:49;;;;;;;183.22;100.12;;;;;;;2.77;75.36;92694.67;1767652;81;21627;-57
2021/01/24 07:32:24;;;;;;;192.20;102.30;;;;;;;2.78;75.69;92696.77;1767519;81;21151;-57
2021/01/24 07:34:54;;;;;;;174.30;99.77;;;;;;;2.85;75.61;92702.69;1767692;81;21079;-57
2021/01/24 07:37:22;;;;;;;169.22;94.35;;;;;;;2.94;75.74;92691.09;1737839;81;21206;-58
2021/01/24 07:39:53;;;;;;;153.23;83.92;;;;;;;3.01;75.41;92690.22;1734426;82;21172;-57
2021/01/24 07:42:21;;;;;;;164.55;89.28;;;;;;;3.00;75.36;92687.94;1734489;82;21236;-59
2021/01/24 07:44:50;;;;;;;166.30;93.92;;;;;;;3.07;75.56;92693.10;1734465;82;21193;-57
2021/01/24 07:47:18;;;;;;;163.65;93.58;;;;;;;3.23;75.43;92694.94;1734524;82;21560;-57
2021/01/24 07:49:47;;;;;;;149.82;82.65;;;;;;;3.39;75.10;92702.81;1734491;82;21370;-58
2021/01/24 07:52:17;;;;;;;160.90;86.30;;;;;;;3.48;74.78;92692.71;1734342;82;21101;-57
2021/01/24 07:54:45;;;;;;;126.38;74.40;;;;;;;3.52;74.47;92691.95;1734461;82;21132;-57
2021/01/24 07:57:14;;;;;;;115.22;66.47;;;;;;;3.48;74.42;92699.36;1720009;82;21065;-57
2021/01/24 07:59:43;;;;;;;110.55;64.55;;;;;;;3.46;74.42;92697.70;1734555;82;21497;-56
2021/01/24 08:02:12;;;;;;;115.82;64.45;;;;;;;3.48;74.37;92690.61;1734206;81;21330;-58
2021/01/24 08:04:42;;;;;;;111.72;67.45;;;;;;;3.51;74.45;92708.11;1734121;82;21100;-57
2021/01/24 08:07:10;;;;;;;114.70;71.12;;;;;;;3.56;74.31;92710.25;1734157;81;21481;-58
2021/01/24 08:09:39;;;;;;;124.58;72.95;;;;;;;3.58;74.35;92711.14;1734202;82;21160;-57
2021/01/24 08:12:11;;;;;;;92.75;57.40;;;;;;;3.62;74.27;92705.72;1734250;82;21593;-58
2021/01/24 08:14:40;;;;;;;87.92;55.17;;;;;;;3.68;74.31;92712.05;1734454;82;22190;-58
2021/01/24 08:17:12;;;;;;;88.17;53.48;;;;;;;3.68;74.17;92712.67;1734383;81;21155;-57
2021/01/24 08:19:41;;;;;;;82.42;53.28;;;;;;;3.73;74.16;92711.44;1695074;82;21149;-57
2021/01/24 08:22:10;;;;;;;85.28;52.53;;;;;;;3.80;74.14;92709.03;1734359;81;21112;-58
2021/01/24 08:24:40;;;;;;;92.82;56.08;;;;;;;3.85;74.17;92705.73;1734190;82;21116;-57
2021/01/24 08:27:09;;;;;;;93.05;61.02;;;;;;;3.95;74.22;92708.58;1734207;82;21252;-58
2021/01/24 08:29:38;;;;;;;111.35;72.20;;;;;;;4.11;74.30;92696.80;1694231;82;21175;-57
2021/01/24 08:32:07;;;;;;;104.70;66.80;;;;;;;4.30;74.25;92692.83;1717678;82;21151;-59
2021/01/24 08:34:35;;;;;;;111.72;70.28;;;;;;;4.52;74.32;92693.38;1734262;82;21101;-57
2021/01/24 08:37:05;;;;;;;136.50;83.52;;;;;;;4.80;74.10;92689.33;1752872;81;21151;-58
2021/01/24 08:39:33;;;;;;;138.82;84.80;;;;;;;5.09;73.63;92675.89;1764600;81;22066;-58
2021/01/24 08:42:04;;;;;;;129.47;80.07;;;;;;;5.35;73.29;92673.63;1713307;81;21100;-57
2021/01/24 08:44:33;;;;;;;142.70;85.22;;;;;;;5.59;72.83;92668.91;1764496;81;21542;-57
2021/01/24 08:47:04;;;;;;;122.87;74.17;;;;;;;5.77;72.00;92673.49;1764479;81;21143;-58
2021/01/24 08:49:32;;;;;;;121.10;71.72;;;;;;;5.84;71.13;92673.16;1764534;81;21107;-57
2021/01/24 08:52:03;;;;;;;80.72;52.17;;;;;;;5.82;70.83;92683.78;1764454;81;23522;-58
2021/01/24 08:54:40;;;;;;;89.90;54.58;;;;;;;5.85;70.54;92680.88;1764427;81;21076;-58
2021/01/24 08:57:20;;;;;;;79.30;44.98;;;;;;;5.92;70.31;92684.60;1764483;81;21611;-57
2021/01/24 08:59:54;;;;;;;70.62;44.15;;;;;;;6.08;70.24;92678.71;1764519;81;21120;-56
2021/01/24 09:02:33;;;;;;;64.47;41.18;;;;;;;6.26;69.73;92669.59;1764532;81;21076;-57
2021/01/24 09:05:03;;;;;;;48.35;32.08;;;;;;;6.48;69.26;92668.63;1764520;81;21202;-58
2021/01/24 09:07:46;;;;;;;48.48;34.83;;;;;;;6.73;68.29;92663.32;1764572;81;21080;-57
2021/01/24 09:10:33;;;;;;;50.98;32.73;;;;;;;6.93;67.72;92659.91;1764517;81;21085;-57
2021/01/24 09:13:04;;;;;;;64.45;41.05;;;;;;;7.06;66.90;92650.80;1764519;81;21905;-58
2021/01/24 09:15:33;;;;;;;61.00;38.40;;;;;;;7.09;66.27;92663.66;1764577;81;21083;-57
2021/01/24 09:18:02;;;;;;;61.68;39.83;;;;;;;7.09;65.91;92667.75;1764452;81;21210;-58
2021/01/24 09:20:31;;;;;;;63.15;42.20;;;;;;;7.07;65.62;92659.88;1764440;81;21124;-56
2021/01/24 09:22:59;;;;;;;59.27;38.35;;;;;;;7.01;65.82;92658.28;1764454;81;21179;-57
2021/01/24 09:25:27;;;;;;;65.50;41.75;;;;;;;6.96;65.66;92661.69;1764566;81;21580;-56
2021/01/24 09:27:56;;;;;;;73.28;46.40;;;;;;;6.86;65.98;92669.25;1764468;81;21084;-57
2021/01/24 09:30:24;;;;;;;67.62;43.78;;;;;;;6.79;66.25;92666.91;1733426;81;21439;-58
2021/01/24 09:32:53;;;;;;;66.85;42.55;;;;;;;6.77;66.51;92668.60;1764360;81;21096;-56
2021/01/24 09:35:23;;;;;;;78.05;48.35;;;;;;;6.82;66.54;92674.76;1764478;81;21071;-58
2021/01/24 09:37:52;;;;;;;78.00;51.28;;;;;;;6.84;66.51;92674.44;1759766;81;21068;-58
2021/01/24 09:40:20;;;;;;;80.10;50.73;;;;;;;6.88;66.57;92679.09;1758831;81;21116;-57
2021/01/24 09:42:49;;;;;;;73.35;50.40;;;;;;;6.97;66.68;92685.06;1758791;81;21373;-58
2021/01/24 09:45:17;;;;;;;81.70;52.60;;;;;;;7.08;66.50;92683.25;1758818;81;21152;-56
2021/01/24 09:47:48;;;;;;;83.33;52.40;;;;;;;7.21;66.62;92685.83;1758798;81;21096;-59
2021/01/24 09:50:18;;;;;;;88.05;57.40;;;;;;;7.29;66.70;92685.56;1758788;81;21195;-59
2021/01/24 09:52:46;;;;;;;88.60;55.63;;;;;;;7.34;66.55;92683.52;1758749;81;21191;-57
2021/01/24 09:55:14;;;;;;;88.22;58.45;;;;;;;7.41;66.63;92692.70;1758868;81;22254;-59
2021/01/24 09:57:43;;;;;;;105.43;67.70;;;;;;;7.48;66.43;92686.83;1758715;81;21179;-57
2021/01/24 10:00:13;;;;;;;110.90;72.67;;;;;;;7.57;66.42;92689.45;1758747;81;21085;-57
2021/01/24 10:02:41;;;;;;;85.00;58.23;;;;;;;7.68;66.32;92688.20;1758879;81;21508;-57
2021/01/24 10:05:11;;;;;;;42.95;28.55;;;;;;;7.82;66.43;92688.77;1758774;81;21144;-58
2021/01/24 10:07:41;;;;;;;15.60;14.00;;;;;;;7.96;66.10;92690.69;1758749;81;21377;-58
2021/01/24 10:10:11;;;;;;;12.03;10.98;;;;;;;8.12;65.00;92694.84;1758754;81;21293;-58
2021/01/24 10:12:40;;;;;;;12.35;10.10;;;;;;;8.30;64.88;92689.09;1758736;81;21132;-58
2021/01/24 10:15:11;;;;;;;13.20;10.98;;;;;;;8.49;64.65;92686.19;1758712;81;21171;-58
2021/01/24 10:17:39;;;;;;;26.10;15.50;;;;;;;8.63;64.43;92675.11;1758809;81;21152;-58
2021/01/24 10:20:08;;;;;;;32.38;23.20;;;;;;;8.84;63.29;92679.28;1758770;81;21588;-57
2021/01/24 10:22:37;;;;;;;9.05;7.03;;;;;;;9.04;63.05;92684.70;1758680;81;21186;-57
2021/01/24 10:25:07;;;;;;;13.65;9.88;;;;;;;9.25;61.60;92675.13;1758873;81;21088;-58
2021/01/24 10:27:36;;;;;;;4.65;4.25;;;;;;;9.42;61.29;92680.85;1758939;81;21176;-57
2021/01/24 10:30:08;;;;;;;5.47;4.20;;;;;;;9.59;60.60;92680.97;1758993;81;21643;-56
2021/01/24 10:32:41;;;;;;;5.67;4.45;;;;;;;9.73;60.03;92667.67;1758958;81;21183;-58
2021/01/24 10:35:10;;;;;;;5.00;4.50;;;;;;;10.05;59.60;92666.36;1758834;81;21667;-56
2021/01/24 10:37:38;;;;;;;3.90;3.58;;;;;;;10.52;58.51;92661.40;1767240;79;21182;-57
2021/01/24 10:40:08;;;;;;;4.15;3.70;;;;;;;11.10;56.19;92661.95;1796370;79;21609;-57
2021/01/24 10:42:39;;;;;;;4.53;4.12;;;;;;;11.81;54.66;92663.91;1796358;79;21185;-57
2021/01/24 10:45:09;;;;;;;3.90;3.60;;;;;;;12.42;52.96;92671.31;1796707;79;21535;-58
2021/01/24 10:47:37;;;;;;;3.65;3.35;;;;;;;12.79;51.44;92664.71;1796217;79;21162;-57
2021/01/24 10:50:09;;;;;;;3.22;2.92;;;;;;;13.03;50.93;92673.11;1796281;79;21173;-57
2021/01/24 10:52:37;;;;;;;3.27;2.98;;;;;;;12.96;49.92;92669.52;1796255;79;21170;-58
2021/01/24 10:55:07;;;;;;;6.12;3.33;;;;;;;12.51;50.70;92666.13;1796581;79;21163;-58
2021/01/24 10:57:35;;;;;;;7.03;6.42;;;;;;;12.07;51.43;92669.82;1730884;82;21377;-58
2021/01/24 11:00:06;;;;;;;4.05;3.65;;;;;;;11.78;52.03;92667.67;1760274;81;21060;-57
2021/01/24 11:02:34;;;;;;;4.05;3.65;;;;;;;11.84;52.70;92671.15;1761062;81;21068;-58
2021/01/24 11:05:03;;;;;;;5.60;4.05;;;;;;;12.16;52.17;92668.17;1730805;83;21535;-57
2021/01/24 11:07:32;;;;;;;5.92;5.08;;;;;;;12.29;51.22;92678.00;1760990;80;21064;-60
2021/01/24 11:10:05;;;;;;;4.47;3.70;;;;;;;12.25;51.13;92677.52;1730806;82;21360;-58
2021/01/24 11:12:33;;;;;;;3.87;3.47;;;;;;;12.12;51.20;92668.31;1760931;81;21524;-58
2021/01/24 11:15:01;;;;;;;5.47;4.80;;;;;;;11.92;51.42;92672.12;1730547;83;21087;-56
2021/01/24 11:17:30;;;;;;;6.37;5.00;;;;;;;11.79;52.06;92667.79;1761058;81;21567;-57
2021/01/24 11:19:59;;;;;;;8.90;6.10;;;;;;;11.78;52.48;92673.79;1730914;82;21131;-56
2021/01/24 11:22:28;;;;;;;5.83;4.97;;;;;;;11.75;52.46;92672.05;1761057;81;21338;-57
2021/01/24 11:24:56;;;;;;;5.60;4.60;;;;;;;11.78;52.45;92677.92;1730843;83;21622;-57
2021/01/24 11:27:26;;;;;;;6.87;5.87;;;;;;;11.94;52.97;92669.60;1760928;81;21156;-56
2021/01/24 11:29:54;;;;;;;6.47;5.12;;;;;;;12.22;52.23;92676.40;1730821;83;21023;-57
2021/01/24 11:32:23;;;;;;;5.10;4.25;;;;;;;12.30;52.07;92675.36;1761137;81;21068;-58
2021/01/24 11:34:53;;;;;;;3.98;3.58;;;;;;;12.26;52.16;92674.15;1729002;82;21209;-57